Bangui, Central African Republic
Current Conditions -  °F | °C
As of 4:00 PM on Thursday 23 Oct 2014 (Local Time) from FEFF Reporting Station
Broken Clouds Broken Clouds  
Wind Chill: 81°   Ceiling: 30000
Heat Index: 85°   Visibility: 6mi
Dew Point: 72°   Wind: 8mph
Humidity: 74%   Direction: 340°NNW
Pressure: 29.83"   Gusts: NA
Location:  4.36°N, 18.56°E
Report Text: FEFF 231500Z 34007KT 9999 SCT026 FEW033CB BKN300 27/22 Q1010 TEMPO TS
Loading
Personal Weather Stations






























Interactive Weather Map
Tropical Storm Tracking
New forecast layout! Learn more

10-Day Weather Forecast

Advertisements
Track Severe Weather on mobile